sensor_id;sensor_type;location;lat;lon;timestamp;pressure;altitude;pressure_sealevel;temperature;humidity
3524;BME280;1776;53.330;11.498;2022-07-06T00:02:15;53629.69;;;-147.39;48.72
3524;BME280;1776;53.330;11.498;2022-07-06T00:04:41;53664.53;;;-147.39;48.94
3524;BME280;1776;53.330;11.498;2022-07-06T00:07:06;53664.53;;;-147.39;49.43
3524;BME280;1776;53.330;11.498;2022-07-06T00:09:32;53687.06;;;-147.39;49.16
3524;BME280;1776;53.330;11.498;2022-07-06T00:11:57;53658.38;;;-147.39;49.46
3524;BME280;1776;53.330;11.498;2022-07-06T00:14:23;53682.97;;;-147.39;49.49
3524;BME280;1776;53.330;11.498;2022-07-06T00:16:48;53652.25;;;-147.39;49.64
3524;BME280;1776;53.330;11.498;2022-07-06T00:19:14;53672.72;;;-147.39;49.99
3524;BME280;1776;53.330;11.498;2022-07-06T00:21:39;53664.53;;;-147.39;49.76
3524;BME280;1776;53.330;11.498;2022-07-06T00:24:04;53654.28;;;-147.39;49.84
3524;BME280;1776;53.330;11.498;2022-07-06T00:26:29;53660.44;;;-147.39;50.12
3524;BME280;1776;53.330;11.498;2022-07-06T00:28:55;53812.03;;;-147.39;50.10
3524;BME280;1776;53.330;11.498;2022-07-06T00:31:20;53670.69;;;-147.39;49.95
3524;BME280;1776;53.330;11.498;2022-07-06T00:33:45;53689.13;;;-147.39;50.12
3524;BME280;1776;53.330;11.498;2022-07-06T00:36:11;53648.13;;;-147.39;50.13
3524;BME280;1776;53.330;11.498;2022-07-06T00:38:36;53691.16;;;-147.39;50.16
3524;BME280;1776;53.330;11.498;2022-07-06T00:41:01;53662.47;;;-147.39;50.16
3524;BME280;1776;53.330;11.498;2022-07-06T00:43:26;53668.63;;;-147.39;50.70
3524;BME280;1776;53.330;11.498;2022-07-06T00:45:52;53652.25;;;-147.39;50.48
3524;BME280;1776;53.330;11.498;2022-07-06T00:48:17;53674.78;;;-147.39;50.70
3524;BME280;1776;53.330;11.498;2022-07-06T00:50:42;53699.34;;;-147.39;51.00
3524;BME280;1776;53.330;11.498;2022-07-06T00:53:08;53689.13;;;-147.39;51.08
3524;BME280;1776;53.330;11.498;2022-07-06T00:55:36;53695.25;;;-147.39;50.96
3524;BME280;1776;53.330;11.498;2022-07-06T00:58:04;53668.63;;;-147.39;51.05
3524;BME280;1776;53.330;11.498;2022-07-06T01:00:31;53707.56;;;-147.39;51.39
3524;BME280;1776;53.330;11.498;2022-07-06T01:02:56;53680.91;;;-147.39;51.32
3524;BME280;1776;53.330;11.498;2022-07-06T01:05:22;53699.34;;;-147.39;52.46
3524;BME280;1776;53.330;11.498;2022-07-06T01:07:49;53685.00;;;-147.39;52.87
3524;BME280;1776;53.330;11.498;2022-07-06T01:10:16;53682.97;;;-147.39;53.09
3524;BME280;1776;53.330;11.498;2022-07-06T01:12:43;53682.97;;;-147.39;52.64
3524;BME280;1776;53.330;11.498;2022-07-06T01:15:15;53703.44;;;-147.39;52.52
3524;BME280;1776;53.330;11.498;2022-07-06T01:17:41;53721.88;;;-147.39;53.14
3524;BME280;1776;53.330;11.498;2022-07-06T01:20:17;53693.22;;;-147.39;52.89
3524;BME280;1776;53.330;11.498;2022-07-06T01:22:44;53721.88;;;-147.39;52.70
3524;BME280;1776;53.330;11.498;2022-07-06T01:25:10;53709.59;;;-147.39;52.77
3524;BME280;1776;53.330;11.498;2022-07-06T01:27:37;53689.13;;;-147.39;53.00
3524;BME280;1776;53.330;11.498;2022-07-06T01:30:08;53682.97;;;-147.39;53.47
3524;BME280;1776;53.330;11.498;2022-07-06T01:32:35;53676.81;;;-147.39;53.62
3524;BME280;1776;53.330;11.498;2022-07-06T01:35:01;53687.06;;;-147.39;53.85
3524;BME280;1776;53.330;11.498;2022-07-06T01:37:26;53709.59;;;-147.39;54.13
3524;BME280;1776;53.330;11.498;2022-07-06T01:39:52;53705.50;;;-147.39;53.71
3524;BME280;1776;53.330;11.498;2022-07-06T01:42:17;53713.69;;;-147.39;53.38
3524;BME280;1776;53.330;11.498;2022-07-06T01:44:43;53715.75;;;-147.39;53.64
3524;BME280;1776;53.330;11.498;2022-07-06T01:47:09;53680.91;;;-147.39;53.89
3524;BME280;1776;53.330;11.498;2022-07-06T01:49:34;53693.22;;;-147.39;54.38
3524;BME280;1776;53.330;11.498;2022-07-06T01:52:00;53703.44;;;-147.39;54.38
3524;BME280;1776;53.330;11.498;2022-07-06T01:54:25;53713.69;;;-147.39;54.42
3524;BME280;1776;53.330;11.498;2022-07-06T01:56:50;53711.66;;;-147.39;54.42
3524;BME280;1776;53.330;11.498;2022-07-06T01:59:15;53713.69;;;-147.39;54.92
3524;BME280;1776;53.330;11.498;2022-07-06T02:01:41;53705.50;;;-147.39;54.53
3524;BME280;1776;53.330;11.498;2022-07-06T02:04:06;53762.88;;;-147.39;54.17
3524;BME280;1776;53.330;11.498;2022-07-06T02:06:31;53703.44;;;-147.39;54.60
3524;BME280;1776;53.330;11.498;2022-07-06T02:08:57;53723.94;;;-147.39;54.34
3524;BME280;1776;53.330;11.498;2022-07-06T02:11:22;53695.25;;;-147.39;54.24
3524;BME280;1776;53.330;11.498;2022-07-06T02:13:48;53717.78;;;-147.39;53.85
3524;BME280;1776;53.330;11.498;2022-07-06T02:16:13;53728.03;;;-147.39;54.15
3524;BME280;1776;53.330;11.498;2022-07-06T02:18:39;53719.84;;;-147.39;53.95
3524;BME280;1776;53.330;11.498;2022-07-06T02:21:04;53795.66;;;-147.39;54.00
3524;BME280;1776;53.330;11.498;2022-07-06T02:23:30;53707.56;;;-147.39;54.11
3524;BME280;1776;53.330;11.498;2022-07-06T02:25:55;53717.78;;;-147.39;53.83
3524;BME280;1776;53.330;11.498;2022-07-06T02:28:21;53699.34;;;-147.39;54.25
3524;BME280;1776;53.330;11.498;2022-07-06T02:30:46;53701.41;;;-147.39;54.56
3524;BME280;1776;53.330;11.498;2022-07-06T02:33:11;53719.84;;;-147.39;54.33
3524;BME280;1776;53.330;11.498;2022-07-06T02:35:37;53703.44;;;-147.39;54.49
3524;BME280;1776;53.330;11.498;2022-07-06T02:38:07;53730.09;;;-147.39;55.15
3524;BME280;1776;53.330;11.498;2022-07-06T02:40:32;53721.88;;;-147.39;55.06
3524;BME280;1776;53.330;11.498;2022-07-06T02:42:57;53781.31;;;-147.39;55.43
3524;BME280;1776;53.330;11.498;2022-07-06T02:45:23;53705.50;;;-147.39;55.13
3524;BME280;1776;53.330;11.498;2022-07-06T02:47:48;53744.44;;;-147.39;55.24
3524;BME280;1776;53.330;11.498;2022-07-06T02:50:13;53728.03;;;-147.39;55.43
3524;BME280;1776;53.330;11.498;2022-07-06T02:52:38;53691.16;;;-147.39;55.43
3524;BME280;1776;53.330;11.498;2022-07-06T02:55:04;53748.53;;;-147.39;56.29
3524;BME280;1776;53.330;11.498;2022-07-06T02:57:29;53715.75;;;-147.39;56.19
3524;BME280;1776;53.330;11.498;2022-07-06T02:59:55;53723.94;;;-147.39;56.26
3524;BME280;1776;53.330;11.498;2022-07-06T03:02:20;53723.94;;;-147.39;55.75
3524;BME280;1776;53.330;11.498;2022-07-06T03:04:45;53721.88;;;-147.39;56.05
3524;BME280;1776;53.330;11.498;2022-07-06T03:07:11;53721.88;;;-147.39;55.90
3524;BME280;1776;53.330;11.498;2022-07-06T03:09:36;53707.56;;;-147.39;56.09
3524;BME280;1776;53.330;11.498;2022-07-06T03:12:02;53726.00;;;-147.39;55.88
3524;BME280;1776;53.330;11.498;2022-07-06T03:14:27;53676.81;;;-147.39;55.91
3524;BME280;1776;53.330;11.498;2022-07-06T03:16:53;53756.72;;;-147.39;55.84
3524;BME280;1776;53.330;11.498;2022-07-06T03:19:18;53693.22;;;-147.39;55.67
3524;BME280;1776;53.330;11.498;2022-07-06T03:21:44;53711.66;;;-147.39;56.09
3524;BME280;1776;53.330;11.498;2022-07-06T03:24:09;53715.75;;;-147.39;55.96
3524;BME280;1776;53.330;11.498;2022-07-06T03:26:34;53699.34;;;-147.39;55.94
3524;BME280;1776;53.330;11.498;2022-07-06T03:29:00;53691.16;;;-147.39;56.16
3524;BME280;1776;53.330;11.498;2022-07-06T03:31:25;53695.25;;;-147.39;55.86
3524;BME280;1776;53.330;11.498;2022-07-06T03:33:51;53711.66;;;-147.39;55.89
3524;BME280;1776;53.330;11.498;2022-07-06T03:36:16;53719.84;;;-147.39;56.35
3524;BME280;1776;53.330;11.498;2022-07-06T03:38:41;53715.75;;;-147.39;56.50
3524;BME280;1776;53.330;11.498;2022-07-06T03:41:07;53715.75;;;-147.39;56.22
3524;BME280;1776;53.330;11.498;2022-07-06T03:43:32;53732.13;;;-147.39;56.03
3524;BME280;1776;53.330;11.498;2022-07-06T03:45:58;53697.31;;;-147.39;56.15
3524;BME280;1776;53.330;11.498;2022-07-06T03:48:23;53715.75;;;-147.39;55.97
3524;BME280;1776;53.330;11.498;2022-07-06T03:50:49;53709.59;;;-147.39;56.08
3524;BME280;1776;53.330;11.498;2022-07-06T03:53:14;53697.31;;;-147.39;56.12
3524;BME280;1776;53.330;11.498;2022-07-06T03:55:39;53682.97;;;-147.39;56.41
3524;BME280;1776;53.330;11.498;2022-07-06T03:58:04;53715.75;;;-147.39;56.42
3524;BME280;1776;53.330;11.498;2022-07-06T04:00:30;53732.13;;;-147.39;56.37
3524;BME280;1776;53.330;11.498;2022-07-06T04:02:55;53734.19;;;-147.39;56.07
3524;BME280;1776;53.330;11.498;2022-07-06T04:05:20;53699.34;;;-147.39;56.23
3524;BME280;1776;53.330;11.498;2022-07-06T04:07:49;53699.34;;;-147.39;56.18
3524;BME280;1776;53.330;11.498;2022-07-06T04:10:15;53703.44;;;-147.39;55.82
3524;BME280;1776;53.330;11.498;2022-07-06T04:12:42;53707.56;;;-147.39;56.43
3524;BME280;1776;53.330;11.498;2022-07-06T04:15:07;53715.75;;;-147.39;56.33
3524;BME280;1776;53.330;11.498;2022-07-06T04:17:33;53713.69;;;-147.39;56.09
3524;BME280;1776;53.330;11.498;2022-07-06T04:20:16;53717.78;;;-147.39;56.03
3524;BME280;1776;53.330;11.498;2022-07-06T04:22:41;53715.75;;;-147.39;56.07
3524;BME280;1776;53.330;11.498;2022-07-06T04:25:08;53740.31;;;-147.39;56.25
3524;BME280;1776;53.330;11.498;2022-07-06T04:27:33;53715.75;;;-147.39;56.22
3524;BME280;1776;53.330;11.498;2022-07-06T04:29:58;53726.00;;;-147.39;56.16
3524;BME280;1776;53.330;11.498;2022-07-06T04:32:23;53736.22;;;-147.39;55.89
3524;BME280;1776;53.330;11.498;2022-07-06T04:34:49;53709.59;;;-147.39;56.14
3524;BME280;1776;53.330;11.498;2022-07-06T04:37:14;53709.59;;;-147.39;56.15
3524;BME280;1776;53.330;11.498;2022-07-06T04:39:39;53717.78;;;-147.39;56.11
3524;BME280;1776;53.330;11.498;2022-07-06T04:42:04;53703.44;;;-147.39;56.38
3524;BME280;1776;53.330;11.498;2022-07-06T04:44:30;53701.41;;;-147.39;56.35
3524;BME280;1776;53.330;11.498;2022-07-06T04:46:55;53719.84;;;-147.39;56.13
3524;BME280;1776;53.330;11.498;2022-07-06T04:49:20;53707.56;;;-147.39;55.81
3524;BME280;1776;53.330;11.498;2022-07-06T04:51:46;53742.38;;;-147.39;55.86
3524;BME280;1776;53.330;11.498;2022-07-06T04:54:11;53717.78;;;-147.39;56.39
3524;BME280;1776;53.330;11.498;2022-07-06T04:56:36;53713.69;;;-147.39;55.88
3524;BME280;1776;53.330;11.498;2022-07-06T04:59:02;53713.69;;;-147.39;56.15
3524;BME280;1776;53.330;11.498;2022-07-06T05:01:27;53809.97;;;-147.39;55.60
3524;BME280;1776;53.330;11.498;2022-07-06T05:03:52;53697.31;;;-147.39;56.43
3524;BME280;1776;53.330;11.498;2022-07-06T05:06:17;53691.16;;;-147.39;55.35
3524;BME280;1776;53.330;11.498;2022-07-06T05:08:45;53703.44;;;-147.39;55.67
3524;BME280;1776;53.330;11.498;2022-07-06T05:11:10;53687.06;;;-147.39;55.22
3524;BME280;1776;53.330;11.498;2022-07-06T05:13:35;53719.84;;;-147.39;54.53
3524;BME280;1776;53.330;11.498;2022-07-06T05:16:00;53715.75;;;-147.39;54.45
3524;BME280;1776;53.330;11.498;2022-07-06T05:18:26;53709.59;;;-147.39;54.37
3524;BME280;1776;53.330;11.498;2022-07-06T05:20:51;53697.31;;;-147.39;54.30
3524;BME280;1776;53.330;11.498;2022-07-06T05:23:16;53701.41;;;-147.39;54.02
3524;BME280;1776;53.330;11.498;2022-07-06T05:25:41;53726.00;;;-147.39;54.08
3524;BME280;1776;53.330;11.498;2022-07-06T05:28:06;53672.72;;;-147.39;53.85
3524;BME280;1776;53.330;11.498;2022-07-06T05:30:32;53703.44;;;-147.39;53.78
3524;BME280;1776;53.330;11.498;2022-07-06T05:32:57;53676.81;;;-147.39;53.40
3524;BME280;1776;53.330;11.498;2022-07-06T05:35:22;53705.50;;;-147.39;53.11
3524;BME280;1776;53.330;11.498;2022-07-06T05:37:48;53721.88;;;-147.39;53.18
3524;BME280;1776;53.330;11.498;2022-07-06T05:40:13;53701.41;;;-147.39;53.17
3524;BME280;1776;53.330;11.498;2022-07-06T05:42:38;53689.13;;;-147.39;52.87
3524;BME280;1776;53.330;11.498;2022-07-06T05:45:04;53764.91;;;-147.39;52.81
3524;BME280;1776;53.330;11.498;2022-07-06T05:47:30;53699.34;;;-147.39;52.67
3524;BME280;1776;53.330;11.498;2022-07-06T05:50:14;53803.84;;;-147.39;52.91
3524;BME280;1776;53.330;11.498;2022-07-06T05:52:44;53703.44;;;-147.39;52.80
3524;BME280;1776;53.330;11.498;2022-07-06T05:55:11;53703.44;;;-147.39;53.44
3524;BME280;1776;53.330;11.498;2022-07-06T05:57:37;53687.06;;;-147.39;53.34
3524;BME280;1776;53.330;11.498;2022-07-06T06:00:04;53682.97;;;-147.39;53.72
3524;BME280;1776;53.330;11.498;2022-07-06T06:02:40;53685.00;;;-147.39;53.93
3524;BME280;1776;53.330;11.498;2022-07-06T06:05:10;53699.34;;;-147.39;54.16
3524;BME280;1776;53.330;11.498;2022-07-06T06:07:37;53709.59;;;-147.39;54.90
3524;BME280;1776;53.330;11.498;2022-07-06T06:10:04;53660.44;;;-147.39;54.76
3524;BME280;1776;53.330;11.498;2022-07-06T06:12:30;53672.72;;;-147.39;55.06
3524;BME280;1776;53.330;11.498;2022-07-06T06:14:56;53709.59;;;-147.39;54.77
3524;BME280;1776;53.330;11.498;2022-07-06T06:17:21;53701.41;;;-147.39;55.20
3524;BME280;1776;53.330;11.498;2022-07-06T06:19:46;53691.16;;;-147.39;55.33
3524;BME280;1776;53.330;11.498;2022-07-06T06:22:11;53709.59;;;-147.39;55.20
3524;BME280;1776;53.330;11.498;2022-07-06T06:24:37;53682.97;;;-147.39;55.28
3524;BME280;1776;53.330;11.498;2022-07-06T06:27:02;53699.34;;;-147.39;54.83
3524;BME280;1776;53.330;11.498;2022-07-06T06:29:28;53697.31;;;-147.39;54.72
3524;BME280;1776;53.330;11.498;2022-07-06T06:31:53;53664.53;;;-147.39;54.66
3524;BME280;1776;53.330;11.498;2022-07-06T06:34:18;53709.59;;;-147.39;54.59
3524;BME280;1776;53.330;11.498;2022-07-06T06:36:44;53723.94;;;-147.39;54.09
3524;BME280;1776;53.330;11.498;2022-07-06T06:39:09;53676.81;;;-147.39;54.06
3524;BME280;1776;53.330;11.498;2022-07-06T06:41:34;53689.13;;;-147.39;53.97
3524;BME280;1776;53.330;11.498;2022-07-06T06:44:00;53691.16;;;-147.39;54.09
3524;BME280;1776;53.330;11.498;2022-07-06T06:46:25;53713.69;;;-147.39;53.92
3524;BME280;1776;53.330;11.498;2022-07-06T06:48:50;53695.25;;;-147.39;54.27
3524;BME280;1776;53.330;11.498;2022-07-06T06:51:15;53676.81;;;-147.39;54.32
3524;BME280;1776;53.330;11.498;2022-07-06T06:53:41;53693.22;;;-147.39;53.92
3524;BME280;1776;53.330;11.498;2022-07-06T06:56:06;53695.25;;;-147.39;53.76
3524;BME280;1776;53.330;11.498;2022-07-06T06:58:32;53678.88;;;-147.39;53.68
3524;BME280;1776;53.330;11.498;2022-07-06T07:00:57;53676.81;;;-147.39;53.34
3524;BME280;1776;53.330;11.498;2022-07-06T07:03:22;53672.72;;;-147.39;53.17
3524;BME280;1776;53.330;11.498;2022-07-06T07:05:47;53674.78;;;-147.39;52.73
3524;BME280;1776;53.330;11.498;2022-07-06T07:08:14;53699.34;;;-147.39;52.94
3524;BME280;1776;53.330;11.498;2022-07-06T07:10:39;53642.00;;;-147.39;53.14
3524;BME280;1776;53.330;11.498;2022-07-06T07:13:04;53654.28;;;-147.39;53.08
3524;BME280;1776;53.330;11.498;2022-07-06T07:15:29;53680.91;;;-147.39;52.64
3524;BME280;1776;53.330;11.498;2022-07-06T07:17:55;53682.97;;;-147.39;52.39
3524;BME280;1776;53.330;11.498;2022-07-06T07:20:20;53697.31;;;-147.39;52.14
3524;BME280;1776;53.330;11.498;2022-07-06T07:22:45;53662.47;;;-147.39;52.31
3524;BME280;1776;53.330;11.498;2022-07-06T07:25:11;53687.06;;;-147.39;51.36
3524;BME280;1776;53.330;11.498;2022-07-06T07:27:36;53672.72;;;-147.39;50.96
3524;BME280;1776;53.330;11.498;2022-07-06T07:30:02;53695.25;;;-147.39;51.28
3524;BME280;1776;53.330;11.498;2022-07-06T07:32:28;53701.41;;;-147.39;50.88
3524;BME280;1776;53.330;11.498;2022-07-06T07:34:53;53699.34;;;-147.39;50.40
3524;BME280;1776;53.330;11.498;2022-07-06T07:37:19;53701.41;;;-147.39;49.92
3524;BME280;1776;53.330;11.498;2022-07-06T07:39:44;53691.16;;;-147.39;49.71
3524;BME280;1776;53.330;11.498;2022-07-06T07:42:09;53740.31;;;-147.39;49.50
3524;BME280;1776;53.330;11.498;2022-07-06T07:44:34;53678.88;;;-147.39;49.30
3524;BME280;1776;53.330;11.498;2022-07-06T07:47:00;53682.97;;;-147.39;49.22
3524;BME280;1776;53.330;11.498;2022-07-06T07:49:25;53682.97;;;-147.39;48.88
3524;BME280;1776;53.330;11.498;2022-07-06T07:51:50;53672.72;;;-147.39;48.21
3524;BME280;1776;53.330;11.498;2022-07-06T07:54:16;53662.47;;;-147.39;48.11
3524;BME280;1776;53.330;11.498;2022-07-06T07:56:41;53670.69;;;-147.39;48.12
3524;BME280;1776;53.330;11.498;2022-07-06T07:59:07;53666.56;;;-147.39;48.27
3524;BME280;1776;53.330;11.498;2022-07-06T08:01:33;53672.72;;;-147.39;48.37
3524;BME280;1776;53.330;11.498;2022-07-06T08:03:58;53670.69;;;-147.39;47.91
3524;BME280;1776;53.330;11.498;2022-07-06T08:06:24;53668.63;;;-147.39;48.05
3524;BME280;1776;53.330;11.498;2022-07-06T08:08:49;53662.47;;;-147.39;47.91
3524;BME280;1776;53.330;11.498;2022-07-06T08:11:15;53674.78;;;-147.39;47.80
3524;BME280;1776;53.330;11.498;2022-07-06T08:13:40;53650.19;;;-147.39;48.17
3524;BME280;1776;53.330;11.498;2022-07-06T08:16:05;53660.44;;;-147.39;48.39
3524;BME280;1776;53.330;11.498;2022-07-06T08:18:31;53662.47;;;-147.39;48.49
3524;BME280;1776;53.330;11.498;2022-07-06T08:20:56;53674.78;;;-147.39;48.74
3524;BME280;1776;53.330;11.498;2022-07-06T08:23:22;53654.28;;;-147.39;48.36
3524;BME280;1776;53.330;11.498;2022-07-06T08:25:48;53644.03;;;-147.39;48.10
3524;BME280;1776;53.330;11.498;2022-07-06T08:28:13;53658.38;;;-147.39;48.17
3524;BME280;1776;53.330;11.498;2022-07-06T08:30:38;53637.91;;;-147.39;48.73
3524;BME280;1776;53.330;11.498;2022-07-06T08:33:04;53648.13;;;-147.39;49.61
3524;BME280;1776;53.330;11.498;2022-07-06T08:35:29;53664.53;;;-147.39;50.47
3524;BME280;1776;53.330;11.498;2022-07-06T08:37:54;53664.53;;;-147.39;51.04
3524;BME280;1776;53.330;11.498;2022-07-06T08:40:20;53664.53;;;-147.39;51.33
3524;BME280;1776;53.330;11.498;2022-07-06T08:42:47;53658.38;;;-147.39;51.54
3524;BME280;1776;53.330;11.498;2022-07-06T08:45:13;53685.00;;;-147.39;51.60
3524;BME280;1776;53.330;11.498;2022-07-06T08:47:41;53676.81;;;-147.39;51.42
3524;BME280;1776;53.330;11.498;2022-07-06T08:50:07;53672.72;;;-147.39;50.01
3524;BME280;1776;53.330;11.498;2022-07-06T08:52:33;53682.97;;;-147.39;49.72
3524;BME280;1776;53.330;11.498;2022-07-06T08:54:59;53650.19;;;-147.39;50.01
3524;BME280;1776;53.330;11.498;2022-07-06T08:57:25;53625.59;;;-147.39;49.21
3524;BME280;1776;53.330;11.498;2022-07-06T08:59:51;53627.66;;;-147.39;48.79
3524;BME280;1776;53.330;11.498;2022-07-06T09:02:16;53650.19;;;-147.39;48.36
3524;BME280;1776;53.330;11.498;2022-07-06T09:04:43;53666.56;;;-147.39;48.49
3524;BME280;1776;53.330;11.498;2022-07-06T09:07:09;53656.34;;;-147.39;49.09
3524;BME280;1776;53.330;11.498;2022-07-06T09:09:37;53625.59;;;-147.39;49.45
3524;BME280;1776;53.330;11.498;2022-07-06T09:12:03;53650.19;;;-147.39;49.34
3524;BME280;1776;53.330;11.498;2022-07-06T09:14:29;53631.75;;;-147.39;49.36
3524;BME280;1776;53.330;11.498;2022-07-06T09:17:03;53676.81;;;-147.39;49.27
3524;BME280;1776;53.330;11.498;2022-07-06T09:19:31;53642.00;;;-147.39;49.59
3524;BME280;1776;53.330;11.498;2022-07-06T09:21:57;53662.47;;;-147.39;49.32
3524;BME280;1776;53.330;11.498;2022-07-06T09:24:22;53613.31;;;-147.39;49.01
3524;BME280;1776;53.330;11.498;2022-07-06T09:26:48;53670.69;;;-147.39;48.90
3524;BME280;1776;53.330;11.498;2022-07-06T09:29:13;53650.19;;;-147.39;48.85
3524;BME280;1776;53.330;11.498;2022-07-06T09:31:39;53646.09;;;-147.39;49.31
3524;BME280;1776;53.330;11.498;2022-07-06T09:34:06;53629.69;;;-147.39;49.14
3524;BME280;1776;53.330;11.498;2022-07-06T09:36:41;53648.13;;;-147.39;49.05
3524;BME280;1776;53.330;11.498;2022-07-06T09:39:26;53633.81;;;-147.39;48.84
3524;BME280;1776;53.330;11.498;2022-07-06T09:41:58;53654.28;;;-147.39;49.20
3524;BME280;1776;53.330;11.498;2022-07-06T09:44:38;53658.38;;;-147.39;48.94
3524;BME280;1776;53.330;11.498;2022-07-06T09:47:05;53629.69;;;-147.39;49.38
3524;BME280;1776;53.330;11.498;2022-07-06T09:49:32;53670.69;;;-147.39;49.42
3524;BME280;1776;53.330;11.498;2022-07-06T09:51:59;53642.00;;;-147.39;50.62
3524;BME280;1776;53.330;11.498;2022-07-06T09:54:25;53646.09;;;-147.39;50.96
3524;BME280;1776;53.330;11.498;2022-07-06T09:56:52;53637.91;;;-147.39;50.87
3524;BME280;1776;53.330;11.498;2022-07-06T09:59:25;53742.38;;;-147.39;51.04
3524;BME280;1776;53.330;11.498;2022-07-06T10:01:52;53654.28;;;-147.39;50.52
3524;BME280;1776;53.330;11.498;2022-07-06T10:04:19;53654.28;;;-147.39;50.79
3524;BME280;1776;53.330;11.498;2022-07-06T10:06:45;53660.44;;;-147.39;50.55
3524;BME280;1776;53.330;11.498;2022-07-06T10:09:14;53678.88;;;-147.39;50.23
3524;BME280;1776;53.330;11.498;2022-07-06T10:11:53;53654.28;;;-147.39;49.58
3524;BME280;1776;53.330;11.498;2022-07-06T10:14:31;53644.03;;;-147.39;48.94
3524;BME280;1776;53.330;11.498;2022-07-06T10:16:57;53642.00;;;-147.39;48.88
3524;BME280;1776;53.330;11.498;2022-07-06T10:19:24;53627.66;;;-147.39;48.21
3524;BME280;1776;53.330;11.498;2022-07-06T10:21:50;53621.50;;;-147.39;47.76
3524;BME280;1776;53.330;11.498;2022-07-06T10:24:17;53658.38;;;-147.39;47.68
3524;BME280;1776;53.330;11.498;2022-07-06T10:26:44;53623.56;;;-147.39;47.89
3524;BME280;1776;53.330;11.498;2022-07-06T10:29:10;53646.09;;;-147.39;47.75
3524;BME280;1776;53.330;11.498;2022-07-06T10:31:39;53646.09;;;-147.39;48.04
3524;BME280;1776;53.330;11.498;2022-07-06T10:34:07;53658.38;;;-147.39;47.73
3524;BME280;1776;53.330;11.498;2022-07-06T10:36:39;53615.38;;;-147.39;47.93
3524;BME280;1776;53.330;11.498;2022-07-06T10:39:04;53646.09;;;-147.39;47.71
3524;BME280;1776;53.330;11.498;2022-07-06T10:41:50;53627.66;;;-147.39;48.03
3524;BME280;1776;53.330;11.498;2022-07-06T10:44:21;53635.84;;;-147.39;48.14
3524;BME280;1776;53.330;11.498;2022-07-06T10:46:57;53625.59;;;-147.39;48.13
3524;BME280;1776;53.330;11.498;2022-07-06T10:49:24;53637.91;;;-147.39;48.28
3524;BME280;1776;53.330;11.498;2022-07-06T10:51:50;53693.22;;;-147.39;48.15
3524;BME280;1776;53.330;11.498;2022-07-06T10:54:17;53639.94;;;-147.39;48.42
3524;BME280;1776;53.330;11.498;2022-07-06T10:56:48;53631.75;;;-147.39;49.49
3524;BME280;1776;53.330;11.498;2022-07-06T11:02:14;53678.88;;;-147.39;51.75
3524;BME280;1776;53.330;11.498;2022-07-06T11:04:44;53742.38;;;-147.39;51.56
3524;BME280;1776;53.330;11.498;2022-07-06T11:07:12;53637.91;;;-147.39;52.09
3524;BME280;1776;53.330;11.498;2022-07-06T11:09:38;53672.72;;;-147.39;52.05
3524;BME280;1776;53.330;11.498;2022-07-06T11:12:17;53674.78;;;-147.39;52.72
3524;BME280;1776;53.330;11.498;2022-07-06T11:14:50;53656.34;;;-147.39;53.30
3524;BME280;1776;53.330;11.498;2022-07-06T11:17:16;53652.25;;;-147.39;53.27
3524;BME280;1776;53.330;11.498;2022-07-06T11:19:56;53654.28;;;-147.39;53.52
3524;BME280;1776;53.330;11.498;2022-07-06T11:22:21;53664.53;;;-147.39;53.54
3524;BME280;1776;53.330;11.498;2022-07-06T11:24:49;53633.81;;;-147.39;53.47
3524;BME280;1776;53.330;11.498;2022-07-06T11:27:18;53670.69;;;-147.39;53.36
3524;BME280;1776;53.330;11.498;2022-07-06T11:29:43;53666.56;;;-147.39;54.28
3524;BME280;1776;53.330;11.498;2022-07-06T11:32:11;53699.34;;;-147.39;54.91
3524;BME280;1776;53.330;11.498;2022-07-06T11:34:43;53682.97;;;-147.39;54.90
3524;BME280;1776;53.330;11.498;2022-07-06T11:37:12;53719.84;;;-147.39;55.46
3524;BME280;1776;53.330;11.498;2022-07-06T11:39:41;53676.81;;;-147.39;55.48
3524;BME280;1776;53.330;11.498;2022-07-06T11:42:08;53783.34;;;-147.39;55.53
3524;BME280;1776;53.330;11.498;2022-07-06T11:44:34;53719.84;;;-147.39;55.56
3524;BME280;1776;53.330;11.498;2022-07-06T11:47:00;53695.25;;;-147.39;55.99
3524;BME280;1776;53.330;11.498;2022-07-06T11:49:27;53660.44;;;-147.39;55.54
3524;BME280;1776;53.330;11.498;2022-07-06T11:51:53;53697.31;;;-147.39;55.58
3524;BME280;1776;53.330;11.498;2022-07-06T11:54:20;53699.34;;;-147.39;55.38
3524;BME280;1776;53.330;11.498;2022-07-06T11:56:51;53672.72;;;-147.39;55.26
3524;BME280;1776;53.330;11.498;2022-07-06T11:59:30;53691.16;;;-147.39;55.87
3524;BME280;1776;53.330;11.498;2022-07-06T12:02:15;53695.25;;;-147.39;55.54
3524;BME280;1776;53.330;11.498;2022-07-06T12:04:42;53699.34;;;-147.39;55.36
3524;BME280;1776;53.330;11.498;2022-07-06T12:07:10;53687.06;;;-147.39;55.73
3524;BME280;1776;53.330;11.498;2022-07-06T12:09:38;53668.63;;;-147.39;55.17
3524;BME280;1776;53.330;11.498;2022-07-06T12:12:04;53693.22;;;-147.39;55.30
3524;BME280;1776;53.330;11.498;2022-07-06T12:14:32;53689.13;;;-147.39;55.29
3524;BME280;1776;53.330;11.498;2022-07-06T12:17:03;53676.81;;;-147.39;55.12
3524;BME280;1776;53.330;11.498;2022-07-06T12:19:29;53654.28;;;-147.39;54.58
3524;BME280;1776;53.330;11.498;2022-07-06T12:21:54;53693.22;;;-147.39;54.50
3524;BME280;1776;53.330;11.498;2022-07-06T12:24:26;53660.44;;;-147.39;53.04
3524;BME280;1776;53.330;11.498;2022-07-06T12:26:58;53648.13;;;-147.39;52.52
3524;BME280;1776;53.330;11.498;2022-07-06T12:29:24;53685.00;;;-147.39;52.09
3524;BME280;1776;53.330;11.498;2022-07-06T12:31:51;53644.03;;;-147.39;51.55
3524;BME280;1776;53.330;11.498;2022-07-06T12:34:22;53646.09;;;-147.39;50.87
3524;BME280;1776;53.330;11.498;2022-07-06T12:36:58;53625.59;;;-147.39;48.27
3524;BME280;1776;53.330;11.498;2022-07-06T12:39:27;53674.78;;;-147.39;47.93
3524;BME280;1776;53.330;11.498;2022-07-06T12:41:55;53633.81;;;-147.39;48.53
3524;BME280;1776;53.330;11.498;2022-07-06T12:44:25;53644.03;;;-147.39;47.23
3524;BME280;1776;53.330;11.498;2022-07-06T12:47:04;53605.13;;;-147.39;46.65
3524;BME280;1776;53.330;11.498;2022-07-06T12:49:31;53621.50;;;-147.39;45.91
3524;BME280;1776;53.330;11.498;2022-07-06T12:51:57;53642.00;;;-147.39;45.24